Have a Safe July 4th! 

Flight Track Log - Related Links

Times and Time Zones

All times are in EDT time to prevent confusion due to time zone crossing. See the N585BG flight status page for this flight to view local times or setup timezone preferences in your user account.

Time Position Orientation Groundspeed Altitude Reporting Facility
EDT Latitude Longitude Course Direction KTS MPH feet Rate Location/Type
Thu 01:26:57 PM 35.5953 -106.1800 266° West 198 228 9,200  Level Albuquerque Center
Thu 01:27:59 PM 35.5894 -106.2561 265° West 210 242 11,200 2,081 Climbing Albuquerque Center
Thu 01:29:01 PM 35.5897 -106.3533 270° West 230 265 13,500 1,872 Climbing Albuquerque Center
Thu 01:30:04 PM 35.5908 -106.4356 271° West 240 276 15,100 1,632 Climbing Albuquerque Center
Thu 01:31:00 PM 35.5834 -106.7542 270° West  Level FlightAware Approximate
Thu 01:31:06 PM 35.5831 -106.5167 263° West 240 276 16,900  Level Albuquerque Center
Thu 01:32:08 PM 35.5806 -106.5933 268° West 230 265 17,800 1,016 Climbing Albuquerque Center
Thu 01:33:10 PM 35.5781 -106.6697 268° West 226 260 19,000 581 Climbing Albuquerque Center
Thu 01:34:12 PM 35.5731 -106.7561 266° West 246 283 19,000 194 Level Albuquerque Center
Thu 01:35:14 PM 35.5692 -106.8733 268° West 281 323 19,400 871 Climbing Albuquerque Center
Thu 01:36:16 PM 35.5661 -106.9647 268° West 276 318 20,800 1,210 Climbing Albuquerque Center
Thu 01:37:18 PM 35.5622 -107.0469 267° West 250 288 21,900 823 Climbing Albuquerque Center
Thu 01:38:20 PM 35.5586 -107.1322 267° West 249 287 22,500 774 Climbing Albuquerque Center
Thu 01:39:22 PM 35.5539 -107.2350 267° West 254 292 23,500 823 Climbing Albuquerque Center
Thu 01:40:24 PM 35.5506 -107.3164 267° West 251 289 24,200 726 Climbing Albuquerque Center
Thu 01:41:26 PM 35.5467 -107.4122 267° West 251 289 25,000 726 Climbing Albuquerque Center
Thu 01:42:28 PM 35.5442 -107.4925 268° West 249 287 25,700 581 Climbing Albuquerque Center
Thu 01:43:30 PM 35.5417 -107.5733 268° West 248 285 26,200 532 Climbing Albuquerque Center
Thu 01:44:32 PM 35.5361 -107.6700 266° West 252 290 26,800 532 Climbing Albuquerque Center
Thu 01:45:34 PM 35.5322 -107.7539 267° West 255 293 27,300 576 Climbing Albuquerque Center
Thu 01:46:37 PM 35.5281 -107.8517 267° West 256 295 28,000 339 Climbing Albuquerque Center
Thu 01:47:38 PM 35.5247 -107.9353 267° West 257 296 28,000  Level Albuquerque Center
Thu 01:48:40 PM 35.5197 -108.0392 267° West 269 310 28,000  Level Albuquerque Center
Thu 01:49:42 PM 35.5153 -108.1317 267° West 278 320 28,000  Level Albuquerque Center
Thu 01:50:45 PM 35.5103 -108.2417 267° West 285 328 28,000  Level Albuquerque Center
Thu 01:51:47 PM 35.5050 -108.3358 266° West 288 331 28,000  Level Albuquerque Center
Thu 01:52:49 PM 35.4997 -108.4461 267° West 290 334 28,000  Level Albuquerque Center
Thu 01:53:51 PM 35.4944 -108.5419 266° West 291 335 28,000  Level Albuquerque Center
Thu 01:54:53 PM 35.4886 -108.6550 266° West 295 339 28,000  Level Albuquerque Center
Thu 01:55:55 PM 35.4833 -108.7511 266° West 295 339 28,000  Level Albuquerque Center
Thu 01:56:57 PM 35.4778 -108.8486 266° West 297 342 28,000  Level Albuquerque Center
Thu 01:57:58 PM 35.4811 -108.9608 272° West 295 339 28,000  Level Albuquerque Center
Thu 01:59:00 PM 35.4861 -109.0575 274° West 296 341 28,000  Level Albuquerque Center
Thu 02:00:02 PM 35.4922 -109.1711 274° West 298 343 28,000  Level Albuquerque Center
Thu 02:01:04 PM 35.4969 -109.2697 273° West 301 346 28,000  Level Albuquerque Center
Thu 02:02:06 PM 35.5025 -109.3853 273° West 302 348 28,000  Level Albuquerque Center
Thu 02:03:08 PM 35.5058 -109.4811 272° West 297 342 28,000  Level Albuquerque Center
Thu 02:04:10 PM 35.5106 -109.5783 273° West 296 341 28,000  Level Albuquerque Center
Thu 02:05:12 PM 35.5150 -109.6928 273° West 299 344 28,000  Level Albuquerque Center
Thu 02:06:14 PM 35.5189 -109.7914 273° West 301 346 28,000  Level Albuquerque Center
Thu 02:07:16 PM 35.5283 -109.9097 276° West 307 353 28,000  Level Albuquerque Center
Thu 02:08:18 PM 35.5322 -110.0056 273° West 298 343 28,000  Level Albuquerque Center
Thu 02:09:20 PM 35.5364 -110.1167 273° West 294 338 28,000  Level Albuquerque Center
Thu 02:10:22 PM 35.5417 -110.2167 274° West 300 345 28,000  Level Albuquerque Center
Thu 02:11:24 PM 35.5464 -110.3325 273° West 303 349 28,000  Level Albuquerque Center
Thu 02:12:25 PM 35.5500 -110.4311 273° West 302 348 28,000  Level Albuquerque Center
Thu 02:13:27 PM 35.5542 -110.5292 273° West 301 346 28,000  Level Albuquerque Center
Thu 02:14:29 PM 35.5578 -110.6439 272° West 301 346 28,000  Level Albuquerque Center
Thu 02:15:31 PM 35.5622 -110.7414 273° West 298 343 28,000  Level Albuquerque Center
Thu 02:16:33 PM 35.5667 -110.8564 273° West 302 348 28,000  Level Albuquerque Center
Thu 02:17:35 PM 35.5683 -110.9525 271° West 297 342 28,000  Level Albuquerque Center
Thu 02:18:36 PM 35.5725 -111.0703 273° West 304 350 28,000  Level Albuquerque Center
Thu 02:19:38 PM 35.5739 -111.1675 271° West 300 345 28,000  Level Albuquerque Center
Thu 02:20:40 PM 35.5778 -111.2817 272° West 300 345 28,000  Level Albuquerque Center
Thu 02:21:42 PM 35.5803 -111.3806 272° West 299 344 28,000  Level Albuquerque Center
Thu 02:22:43 PM 35.5819 -111.4906 271° West 303 349 28,000  Level Albuquerque Center
Thu 02:23:45 PM 35.5831 -111.5936 271° West 304 350 28,000  Level Albuquerque Center
Thu 02:24:47 PM 35.5869 -111.6972 273° West 305 351 28,000  Level Albuquerque Center
Thu 02:25:48 PM 35.5858 -111.8006 269° West 307 353 28,000  Level Albuquerque Center
Thu 02:26:50 PM 35.5883 -111.9044 272° West 308 354 28,000  Level Albuquerque Center
Thu 02:27:52 PM 35.5919 -112.0089 272° West 308 354 28,000 -244 Level Albuquerque Center
Thu 02:28:53 PM 35.5944 -112.1150 272° West 311 358 27,500 -561 Descending Albuquerque Center
Thu 02:29:39 PM 35.5992 -112.2033 274° West 316 364 27,000 -484 Descending Los Angeles Center
Thu 02:29:55 PM 35.5994 -112.2464 270° West 321 369 27,000 -231 Level Albuquerque Center
Thu 02:30:57 PM 35.6011 -112.3544 271° West 320 368 26,700 -661 Descending Albuquerque Center
Thu 02:31:44 PM 35.6042 -112.4447 272° West 322 371 25,800 -936 Descending Los Angeles Center
Thu 02:32:46 PM 35.6067 -112.5594 272° West 334 384 25,000 -726 Descending Los Angeles Center
Thu 02:33:48 PM 35.6097 -112.6786 272° West 332 382 24,300 -774 Descending Los Angeles Center
Thu 02:34:50 PM 35.6119 -112.7925 271° West 333 383 23,400 -726 Descending Los Angeles Center
Thu 02:35:52 PM 35.6131 -112.8994 271° West 317 365 22,800 -823 Descending Los Angeles Center
Thu 02:36:54 PM 35.6147 -113.0103 271° West 307 353 21,700 -1,016 Descending Los Angeles Center
Thu 02:37:56 PM 35.6175 -113.1172 272° West 311 358 20,700 -871 Descending Los Angeles Center
Thu 02:38:58 PM 35.6181 -113.2219 270° West 306 352 19,900 -864 Descending Los Angeles Center
Thu 02:40:01 PM 35.6206 -113.3472 271° West 306 352 18,900 -912 Descending Los Angeles Center
Thu 02:41:03 PM 35.6219 -113.4517 271° West 308 354 18,000 -629 Descending Los Angeles Center
Thu 02:42:05 PM 35.6242 -113.5564 272° West 308 354 17,600 -532 Descending Los Angeles Center
Thu 02:43:07 PM 35.6397 -113.6581 281° West 307 353 16,900 -629 Descending Los Angeles Center
Thu 02:44:09 PM 35.6547 -113.7617 280° West 308 354 16,300 -968 Descending Los Angeles Center
Thu 02:45:11 PM 35.6725 -113.8853 280° West 311 358 14,900 -1,258 Descending Los Angeles Center
Thu 02:46:13 PM 35.6869 -113.9894 280° West 311 358 13,700 -1,113 Descending Los Angeles Center
Thu 02:47:15 PM 35.6997 -114.0850 279° West 289 333 12,600 -823 Descending Los Angeles Center
Thu 02:48:17 PM 35.7136 -114.1842 280° West 283 326 12,000 -371 Descending Los Angeles Center
Thu 02:48:52 PM 35.7236 -114.2417 282° West 283 326 12,000  Level Los Angeles Center
Thu 02:49:19 PM 35.7261 -114.2767 275° West 277 319 12,000  Level Los Angeles Center
Thu 02:49:53 PM 35.7358 -114.3439 280° West 285 328 12,000  Level Los Angeles Center
Thu 02:50:22 PM 35.7403 -114.3742 280° West 288 331 12,000  Level Los Angeles Center
Thu 02:50:54 PM 35.7569 -114.4375 288° West 282 325 12,000 -97 Level Los Angeles Center
Thu 02:51:24 PM 35.7575 -114.4692 271° West 285 328 11,900 -1,279 Descending Los Angeles Center
Thu 02:51:55 PM 35.7553 -114.5364 268° West 287 330 10,700 -1,839 Descending Los Angeles Center
Thu 02:52:26 PM 35.7533 -114.5861 267° West 284 327 10,000 -800 Descending Los Angeles Center
Thu 02:52:55 PM 35.7531 -114.6328 270° West 282 325 9,900 -97 Descending Los Angeles Center
Thu 02:53:28 PM 35.7550 -114.6778 273° West 275 316 9,900 98 Level Los Angeles Center
Thu 02:53:56 PM 35.7544 -114.7169 269° West 250 288 10,000  Climbing Los Angeles Center
Thu 02:54:30 PM 35.7558 -114.7606 272° West 252 290 9,900 -590 Descending Los Angeles Center
Thu 02:54:57 PM 35.7558 -114.8014 270° West 248 285 9,400 -968 Descending Los Angeles Center
Thu 02:55:32 PM 35.7564 -114.8469 271° West 251 289 8,900 -896 Descending Los Angeles Center
Thu 02:56:04 PM 35.7531 -114.9058 266° West 262 302 8,400 -774 Descending Los Angeles Center
Thu 02:56:34 PM 35.7581 -114.9372 281° West 257 296 8,100 -984 Descending Los Angeles Center
Thu 02:57:05 PM 35.7739 -114.9917 290° West 257 296 7,400 -968 Descending Los Angeles Center
Thu 02:57:36 PM 35.7822 -115.0203 290° West 258 297 7,100 -984 Descending Los Angeles Center
Thu 02:58:06 PM 35.7953 -115.0694 288° West 237 273 6,400 -1,524 Descending Los Angeles Center
Thu 02:58:39 PM 35.8058 -115.1086 288° West 241 277 5,500 -1,200 Descending Los Angeles Center
Thu 02:59:06 PM 35.8144 -115.1375 290° West 204 235 5,200 -484 Descending Los Angeles Center
Thu 02:59:41 PM 35.8386 -115.1397 356° North 205 236 5,000 -98 Descending Los Angeles Center
Thu 03:00:07 PM 35.8561 -115.1397 360° North 158 182 5,100  Climbing Los Angeles Center
Thu 03:00:47 PM 35.8800 -115.1358 North 196 226 5,000 -787 Descending Los Angeles Center
Thu 03:01:08 PM 35.9050 -115.1369 358° North 161 185 4,300 -1,390 Descending Los Angeles Center
Thu 03:02:09 PM 35.9375 -115.1367 360° North 124 143 3,100 -1,180 Descending Los Angeles Center
Thu 03:04:00 PM 35.9667 -115.1333 North  Level FlightAware Approximate
Thu 03:11:00 PM 35.9729 -115.1344 North  Level Estimated

Login

Don't have an account? Register now (free) for customized features, flight alerts, and more!